createdAt,value
2023-03-29T14:01:07.475Z,42.1408
2023-03-29T14:02:08.663Z,40.8000
2023-03-29T14:03:09.833Z,43.4354
2023-03-29T14:04:11.093Z,40.6162
2023-03-29T14:05:12.318Z,40.6085
2023-03-29T14:06:13.546Z,39.9785
2023-03-29T14:07:14.812Z,39.1385
2023-03-29T14:08:19.401Z,38.9754
2023-03-29T14:09:20.931Z,39.0646
2023-03-29T14:10:22.423Z,39.4769
2023-03-29T14:11:24.481Z,38.7915
2023-03-29T14:12:25.653Z,38.6185
2023-03-29T14:13:27.036Z,38.4362
2023-03-29T14:14:28.553Z,38.5277
2023-03-29T14:15:30.049Z,38.2231
2023-03-29T14:16:31.815Z,38.2092
2023-03-29T14:17:33.133Z,38.2900
2023-03-29T14:18:34.802Z,38.5385
2023-03-29T14:19:36.128Z,38.2400
2023-03-29T14:21:58.808Z,37.8308
2023-03-29T14:23:00.047Z,37.5323
2023-03-29T14:24:01.282Z,37.3685
2023-03-29T14:25:02.477Z,37.7808
2023-03-29T14:26:03.972Z,38.4054
2023-03-29T14:27:04.989Z,37.7377
2023-03-29T14:28:06.234Z,37.7031
2023-03-29T14:29:07.445Z,37.4392
2023-03-29T14:30:07.600Z,37.4833
2023-03-29T14:32:04.573Z,37.0085
2023-03-29T14:33:05.787Z,36.7938
2023-03-29T14:34:06.958Z,36.6831
2023-03-29T14:35:10.401Z,36.6277
2023-03-29T14:36:12.064Z,36.9162
2023-03-29T14:37:13.475Z,36.8592
2023-03-29T14:38:14.927Z,36.9377
2023-03-29T14:39:17.847Z,37.4854
2023-03-29T14:40:19.120Z,37.2123
2023-03-29T14:41:21.998Z,38.0315
2023-03-29T14:42:21.575Z,37.5462
2023-03-29T14:43:22.746Z,37.3654
2023-03-29T14:44:24.076Z,37.0923
2023-03-29T14:45:25.566Z,36.9354
2023-03-29T14:46:27.197Z,36.9162
2023-03-29T14:47:28.650Z,37.2754
2023-03-29T14:48:30.137Z,37.0385
2023-03-29T14:49:31.702Z,38.6508
2023-03-29T14:50:33.196Z,38.6469
2023-03-29T14:51:34.694Z,36.4538
2023-03-29T14:52:36.239Z,35.6931
2023-03-29T14:53:37.762Z,35.8408
2023-03-29T14:54:39.242Z,35.3038
2023-03-29T14:55:40.799Z,35.7723
2023-03-29T14:56:42.308Z,35.8285
2023-03-29T14:57:43.852Z,35.2231
2023-03-29T14:58:45.316Z,34.4854
2023-03-29T14:59:46.854Z,34.2785
2023-03-29T15:00:48.399Z,35.0046
2023-03-29T15:01:50.010Z,35.6277
2023-03-29T15:02:51.536Z,35.5792
2023-03-29T15:03:54.712Z,35.7723
2023-03-29T15:04:54.461Z,35.6854
2023-03-29T15:05:56.003Z,35.4985
2023-03-29T15:06:57.510Z,35.5815
2023-03-29T15:07:59.025Z,35.4215
2023-03-29T15:09:06.161Z,35.7138
2023-03-29T15:10:04.418Z,35.6838
2023-03-29T15:11:05.694Z,36.2023
2023-03-29T15:12:06.925Z,35.9969
2023-03-29T15:13:08.181Z,35.9723
2023-03-29T15:14:09.433Z,35.7892
2023-03-29T15:15:10.629Z,36.4131
2023-03-29T15:16:12.075Z,36.8969
2023-03-29T15:17:13.122Z,36.7785
2023-03-29T15:18:14.441Z,36.7046
2023-03-29T15:19:15.725Z,36.6954
2023-03-29T15:20:17.260Z,37.0792
2023-03-29T15:21:18.794Z,37.3262
2023-03-29T15:22:20.275Z,37.2454
2023-03-29T15:23:21.854Z,37.5623
2023-03-29T15:24:23.368Z,37.2038
2023-03-29T15:25:24.877Z,36.8585
2023-03-29T15:26:26.394Z,37.6254
2023-03-29T15:27:27.928Z,37.6169
2023-03-29T15:28:29.487Z,37.5138
2023-03-29T15:29:30.936Z,37.4869
2023-03-29T15:30:33.982Z,38.0608
2023-03-29T15:31:35.245Z,38.2208
2023-03-29T15:32:36.465Z,37.5700
2023-03-29T15:33:37.922Z,37.7331
2023-03-29T15:34:38.930Z,37.6269
2023-03-29T15:35:40.160Z,37.5085
2023-03-29T15:36:41.703Z,38.2123
2023-03-29T15:37:43.136Z,38.3462
2023-03-29T15:38:45.508Z,38.0415
2023-03-29T15:39:46.180Z,38.1754
2023-03-29T15:40:47.763Z,37.8900
2023-03-29T15:41:49.287Z,37.9985
2023-03-29T15:42:50.760Z,38.0177
2023-03-29T15:43:52.268Z,38.1023
2023-03-29T15:44:53.809Z,37.2108
2023-03-29T15:45:55.330Z,36.8938
2023-03-29T15:46:56.875Z,37.4300
2023-03-29T15:47:59.735Z,37.7846
2023-03-29T15:49:01.015Z,37.3223
2023-03-29T15:50:02.198Z,38.4123
2023-03-29T15:51:06.534Z,37.6623
2023-03-29T15:52:04.677Z,37.0769
2023-03-29T15:53:15.149Z,37.0923
2023-03-29T15:54:07.584Z,36.7792
2023-03-29T15:55:08.998Z,36.9208
2023-03-29T15:56:10.562Z,37.3515
2023-03-29T15:57:12.482Z,37.7800
2023-03-29T15:58:13.665Z,37.3877
2023-03-29T15:59:18.129Z,37.7054
2023-03-29T16:00:19.350Z,37.3238
2023-03-29T16:01:20.574Z,36.6008
2023-03-29T16:02:21.854Z,37.0038
2023-03-29T16:03:23.089Z,36.9508
2023-03-29T16:04:24.291Z,36.7662
2023-03-29T16:05:25.546Z,37.4677
2023-03-29T16:06:26.786Z,36.9892
2023-03-29T16:07:27.980Z,36.6215
2023-03-29T16:08:29.232Z,36.9731
2023-03-29T16:09:30.554Z,36.7569
2023-03-29T16:10:31.798Z,36.5362
2023-03-29T16:11:33.332Z,37.1254
2023-03-29T16:12:34.830Z,36.9246
2023-03-29T16:13:36.509Z,37.0446
2023-03-29T16:14:37.928Z,37.1877
2023-03-29T16:15:39.421Z,37.3777
2023-03-29T16:16:40.969Z,37.6869
2023-03-29T16:17:42.511Z,37.9454
2023-03-29T16:18:43.943Z,38.1662
2023-03-29T16:19:45.542Z,38.3215
2023-03-29T16:20:46.991Z,36.9892
2023-03-29T16:21:48.558Z,37.7754
2023-03-29T16:22:50.031Z,37.7923
2023-03-29T16:23:51.580Z,37.3308
2023-03-29T16:24:53.141Z,37.7138
2023-03-29T16:25:54.633Z,38.0338
2023-03-29T16:26:56.486Z,38.0585
2023-03-29T16:27:57.671Z,38.4931
2023-03-29T16:28:59.165Z,38.1638
2023-03-29T16:30:00.736Z,38.7331
2023-03-29T16:31:02.212Z,37.9677
2023-03-29T16:32:06.265Z,38.3838
2023-03-29T17:45:53.497Z,58.1985
2023-03-29T17:46:54.801Z,58.2331
2023-03-29T17:47:56.045Z,57.8608
2023-03-29T17:48:57.204Z,56.5746
2023-03-29T17:52:32.756Z,56.2931
2023-03-29T17:53:34.018Z,56.3669
2023-03-29T17:54:35.231Z,56.4715
2023-03-29T17:55:36.481Z,56.5700
2023-03-29T17:56:37.710Z,56.5492
2023-03-29T17:57:39.424Z,56.3654
2023-03-29T17:58:40.168Z,56.2500
2023-03-29T17:59:41.473Z,56.1038
2023-03-29T18:00:46.195Z,55.9946
2023-03-29T18:01:48.646Z,55.9492
2023-03-29T18:02:44.656Z,55.6883
2023-03-29T18:03:46.132Z,55.5369
2023-03-29T18:04:47.612Z,55.4954
2023-03-29T18:05:49.126Z,55.5100
2023-03-29T18:06:50.654Z,55.4600
2023-03-29T18:07:52.199Z,55.3362
2023-03-29T18:08:53.714Z,55.2085
2023-03-29T18:09:55.236Z,55.2646
2023-03-29T18:10:56.752Z,54.9846
2023-03-29T18:11:58.283Z,55.0123
2023-03-29T18:12:59.953Z,55.3131
2023-03-29T18:14:01.327Z,55.7115
2023-03-29T18:15:02.858Z,55.9269
2023-03-29T18:16:04.560Z,55.9169
2023-03-29T18:17:05.900Z,55.8431
2023-03-29T18:18:08.740Z,58.0500
2023-03-29T18:19:08.917Z,58.0562
2023-03-29T18:20:10.453Z,56.7185
2023-03-29T18:21:11.948Z,56.4546
2023-03-29T18:22:13.463Z,55.8192
2023-03-29T18:23:14.998Z,55.6969
2023-03-29T18:24:16.518Z,55.5008
2023-03-29T18:25:18.033Z,55.4392
2023-03-29T18:26:19.562Z,55.6523
2023-03-29T18:27:21.115Z,55.4323
2023-03-29T18:28:22.653Z,55.2562
2023-03-29T18:29:24.142Z,55.0785
2023-03-29T18:30:25.647Z,55.1538
2023-03-29T18:31:27.278Z,55.2277
2023-03-29T18:32:28.716Z,55.0369
2023-03-29T18:33:30.234Z,54.8392
2023-03-29T18:34:31.733Z,54.9062
2023-03-29T18:35:33.325Z,54.8846
2023-03-29T18:36:34.780Z,55.0262
2023-03-29T18:37:36.328Z,55.0046
2023-03-29T18:38:41.443Z,54.9408
2023-03-29T18:39:48.951Z,55.0523
2023-03-29T18:40:44.203Z,55.0667
2023-03-29T18:43:17.959Z,54.9200
2023-03-29T18:44:18.607Z,54.9115
2023-03-29T18:45:20.171Z,54.7831
2023-03-29T18:46:22.603Z,54.7192
2023-03-29T18:47:23.407Z,54.5215
2023-03-29T18:48:24.686Z,54.7092
2023-03-29T18:49:26.202Z,54.5808
2023-03-29T18:50:29.449Z,54.6062
2023-03-29T18:51:29.222Z,54.2554
2023-03-29T18:52:32.364Z,54.4123
2023-03-29T18:53:37.034Z,54.5357
2023-03-29T18:54:38.549Z,54.5185
2023-03-29T18:55:40.126Z,54.4362
2023-03-29T18:56:42.028Z,54.4331
2023-03-29T18:57:43.099Z,54.4485
2023-03-29T18:58:44.628Z,54.3577
2023-03-29T18:59:46.134Z,54.4023
2023-03-29T19:00:47.632Z,54.4685
2023-03-29T19:01:53.266Z,54.3092
2023-03-29T19:02:53.867Z,53.9715
2023-03-29T19:03:55.774Z,54.0738
2023-03-29T19:04:56.281Z,54.4492
2023-03-29T19:05:57.503Z,55.1385
2023-03-29T19:06:58.741Z,55.4446
2023-03-29T19:07:59.988Z,55.3823
2023-03-29T19:09:01.242Z,55.0431
2023-03-29T19:10:02.486Z,54.8131
2023-03-29T19:11:03.756Z,55.0815
2023-03-29T19:12:04.969Z,55.0138
2023-03-29T19:13:06.241Z,54.8562
2023-03-29T19:14:07.515Z,54.6254
2023-03-29T19:15:08.940Z,54.4738
2023-03-29T19:16:10.536Z,54.4931
2023-03-29T19:17:11.984Z,54.3869
2023-03-29T19:18:13.630Z,54.8662
2023-03-29T19:19:14.999Z,54.8515
2023-03-29T19:20:16.555Z,54.7462
2023-03-29T19:21:18.045Z,54.5946
2023-03-29T19:22:19.590Z,54.5323
2023-03-29T19:23:21.092Z,54.3908
2023-03-29T19:24:22.642Z,54.3469
2023-03-29T19:25:24.130Z,54.3392
2023-03-29T19:26:25.653Z,54.3123
2023-03-29T19:27:27.196Z,54.4438
2023-03-29T19:28:28.716Z,54.9338
2023-03-29T19:29:30.271Z,54.9054
2023-03-29T19:30:31.735Z,54.8708
2023-03-29T19:31:33.324Z,54.9069
2023-03-29T19:32:34.803Z,54.8692
2023-03-29T19:33:36.318Z,54.6854
2023-03-29T19:34:37.828Z,54.5523
2023-03-29T19:35:39.349Z,54.4462
2023-03-29T19:36:40.858Z,54.4215
2023-03-29T19:37:42.376Z,54.4669
2023-03-29T19:38:44.010Z,54.3238
2023-03-29T19:39:45.448Z,54.4177
2023-03-29T19:40:46.958Z,54.3300
2023-03-29T19:41:48.454Z,54.4131
2023-03-29T19:42:50.036Z,54.3354
2023-03-29T19:43:51.563Z,54.3785
2023-03-29T19:44:53.062Z,54.1154
2023-03-29T19:45:54.748Z,54.1885
2023-03-29T19:46:56.150Z,54.2746
2023-03-29T19:47:57.648Z,54.4362
2023-03-29T19:48:59.127Z,54.0885
2023-03-29T19:50:00.664Z,54.0562
2023-03-29T19:51:02.177Z,54.3054
2023-03-29T19:52:03.729Z,54.1054
2023-03-29T19:53:05.218Z,54.0477
2023-03-29T19:54:06.795Z,54.4623
2023-03-29T19:55:08.318Z,54.7377
2023-03-29T19:56:09.809Z,54.6038
2023-03-29T19:57:11.326Z,54.4077
2023-03-29T19:58:12.906Z,54.5985
2023-03-29T19:59:14.360Z,54.6954
2023-03-29T20:00:15.907Z,54.6731
2023-03-29T20:01:17.406Z,54.7585
2023-03-29T20:02:18.937Z,54.7054
2023-03-29T20:03:20.471Z,54.5800
2023-03-29T20:04:22.033Z,54.5231
2023-03-29T20:05:23.509Z,54.5031
2023-03-29T20:06:25.039Z,54.3477
2023-03-29T20:07:26.545Z,54.3169
2023-03-29T20:08:28.075Z,54.4062
2023-03-29T20:09:29.632Z,54.3885
2023-03-29T20:10:31.136Z,54.2615
2023-03-29T20:11:32.637Z,54.1138
2023-03-29T20:12:34.191Z,54.1554
2023-03-29T20:13:38.718Z,54.0823
2023-03-29T20:14:37.217Z,54.3269
2023-03-29T20:15:38.736Z,54.2500
2023-03-29T20:16:40.316Z,54.1785
2023-03-29T20:17:41.801Z,54.4831
2023-03-29T20:18:43.303Z,54.5931
2023-03-29T20:19:44.860Z,54.5931
2023-03-29T20:20:46.362Z,54.5246
2023-03-29T20:21:47.970Z,54.3946
2023-03-29T20:22:53.696Z,54.5177
2023-03-29T20:23:51.104Z,54.7992
2023-03-29T20:24:52.456Z,54.6600
2023-03-29T20:25:54.012Z,54.5662
2023-03-29T20:26:55.495Z,54.4577
2023-03-29T20:27:57.007Z,54.5885
2023-03-29T20:28:58.529Z,54.5115
2023-03-29T20:30:00.061Z,54.4638
2023-03-29T20:31:01.936Z,54.2577
2023-03-29T20:32:03.151Z,54.2862
2023-03-29T20:33:04.712Z,54.4123
2023-03-29T20:34:06.154Z,54.3177
2023-03-29T20:35:07.691Z,54.3400
2023-03-29T20:36:09.349Z,54.3608
2023-03-29T20:37:10.898Z,54.3031
2023-03-29T20:38:12.269Z,54.5146
2023-03-29T20:39:13.908Z,54.5977
2023-03-29T20:40:15.304Z,54.6277
2023-03-29T20:41:16.822Z,54.5977
2023-03-29T20:42:18.804Z,54.6754
2023-03-29T20:43:19.905Z,54.7969
2023-03-29T20:44:21.859Z,54.6985
2023-03-29T20:45:22.917Z,54.5585
2023-03-29T20:46:24.552Z,54.7400
2023-03-29T20:47:25.973Z,54.7354
2023-03-29T20:48:27.491Z,54.7392
2023-03-29T20:49:29.164Z,54.8269
2023-03-29T20:50:30.588Z,54.7685
2023-03-29T20:51:32.185Z,54.8546
2023-03-29T20:52:33.597Z,54.9000
2023-03-29T20:53:35.121Z,54.9023
2023-03-29T20:54:36.715Z,54.9723
2023-03-29T20:55:38.171Z,54.9331
2023-03-29T20:56:40.715Z,54.9023
2023-03-29T20:57:41.203Z,54.8877
2023-03-29T20:58:42.694Z,55.1123
2023-03-29T20:59:44.253Z,55.1800
2023-03-29T21:00:45.761Z,55.1100
2023-03-29T21:01:47.306Z,55.1700
2023-03-29T21:02:48.867Z,54.9038
2023-03-29T21:03:50.387Z,54.8631
2023-03-29T21:04:51.963Z,54.7777
2023-03-29T21:05:53.449Z,54.7077
2023-03-29T21:06:54.914Z,54.7577
2023-03-29T21:07:56.425Z,54.7754
2023-03-29T21:08:57.942Z,54.7508
2023-03-29T21:09:59.465Z,54.7662
2023-03-29T21:11:01.140Z,54.8946
2023-03-29T21:12:02.599Z,54.9792
2023-03-29T21:13:04.041Z,54.9377
2023-03-29T21:14:05.576Z,54.8738
2023-03-29T21:15:07.084Z,54.6915
2023-03-29T21:16:08.662Z,54.5562
2023-03-29T21:17:10.186Z,54.3731
2023-03-29T21:18:11.726Z,54.3031
2023-03-29T21:19:13.169Z,54.2092
2023-03-29T21:20:14.721Z,54.1992
2023-03-29T21:21:16.252Z,54.3246
2023-03-29T21:22:22.608Z,54.1077
2023-03-29T21:23:26.055Z,54.2062
2023-03-29T21:24:29.520Z,54.0038
2023-03-29T21:25:29.615Z,54.1346
2023-03-29T21:26:30.525Z,53.9323
2023-03-29T21:27:31.555Z,53.9700
2023-03-29T21:28:33.153Z,54.0685
2023-03-29T21:29:35.434Z,54.3000
2023-03-29T21:30:36.752Z,54.8346
2023-03-29T21:31:37.276Z,54.7085
2023-03-29T21:32:37.783Z,54.6092
2023-03-29T21:33:40.801Z,53.9969
2023-03-29T21:34:41.452Z,54.0569
2023-03-29T21:35:42.447Z,54.1346
2023-03-29T21:36:43.835Z,53.9831
2023-03-29T21:37:45.334Z,53.8200
2023-03-29T21:38:46.943Z,53.8631
2023-03-29T21:39:49.518Z,54.2385
2023-03-29T21:40:50.022Z,54.6862
2023-03-29T21:41:51.422Z,55.1046
2023-03-29T21:42:52.945Z,54.9085
2023-03-29T21:43:54.475Z,54.6023
2023-03-29T21:44:56.012Z,54.2692
2023-03-29T21:45:57.613Z,54.1215
2023-03-29T21:46:59.133Z,53.9900
2023-03-29T21:48:00.647Z,54.1900
2023-03-29T21:49:02.162Z,54.2754
2023-03-29T21:50:03.652Z,54.2469
2023-03-29T21:51:05.446Z,54.3546
2023-03-29T21:52:06.683Z,54.5231
2023-03-29T21:53:08.693Z,54.5308
2023-03-29T21:54:10.267Z,54.6620
2023-03-29T22:06:32.735Z,54.8164
2023-03-29T22:06:32.735Z,53.8725
2023-03-29T22:07:24.827Z,53.4992
2023-03-29T22:08:26.439Z,53.4646
2023-03-29T22:09:27.887Z,53.8215
2023-03-29T22:10:29.432Z,54.0231
2023-03-29T22:11:31.866Z,54.4177
2023-03-29T22:12:32.473Z,54.2369
2023-03-29T22:13:33.981Z,53.9562
2023-03-29T22:14:36.243Z,54.1038
2023-03-29T22:15:37.009Z,54.0900
2023-03-29T22:16:40.956Z,54.1146
2023-03-29T22:17:41.513Z,54.1315
2023-03-29T22:18:42.765Z,54.1762
2023-03-29T22:19:43.946Z,54.2054
2023-03-29T22:20:45.197Z,54.2954
2023-03-29T22:21:46.423Z,54.1915
2023-03-29T22:22:47.808Z,54.0700
2023-03-29T22:23:49.187Z,54.2069
2023-03-29T22:24:51.888Z,54.3546
2023-03-29T22:25:52.237Z,54.4377
2023-03-29T22:26:53.742Z,54.3692
2023-03-29T22:27:55.312Z,54.3138
2023-03-29T22:28:57.378Z,54.4538
2023-03-29T22:29:58.348Z,54.3523
2023-03-29T22:31:00.288Z,54.3185
2023-03-29T22:32:01.474Z,54.2662
2023-03-29T22:33:02.984Z,54.5862
2023-03-29T22:34:04.503Z,54.7285
2023-03-29T22:35:05.942Z,54.4400
2023-03-29T22:36:07.457Z,54.5669
2023-03-29T22:37:08.978Z,54.5015
2023-03-29T22:38:10.503Z,54.3815
2023-03-29T22:39:12.038Z,54.5108
2023-03-29T22:40:13.558Z,54.4977
2023-03-29T22:41:15.071Z,54.5431
2023-03-29T22:42:16.609Z,54.5508
2023-03-29T22:43:18.140Z,54.7285
2023-03-29T22:44:19.640Z,54.7308
2023-03-29T22:45:21.206Z,54.7738
2023-03-29T22:46:22.777Z,54.6792
2023-03-29T22:47:24.240Z,54.5054
2023-03-29T22:48:25.709Z,54.2854
2023-03-29T22:49:27.257Z,54.5054
2023-03-29T22:50:28.769Z,54.6592
2023-03-29T22:51:30.301Z,54.6108
2023-03-29T22:52:31.852Z,54.4900
2023-03-29T22:53:33.376Z,54.2746
2023-03-29T22:54:34.864Z,54.3238
2023-03-29T22:55:36.375Z,54.7285
2023-03-29T22:56:37.997Z,54.7315
2023-03-29T22:57:39.472Z,55.0023
2023-03-29T22:58:40.988Z,54.8346
2023-03-29T22:59:42.493Z,54.4569
2023-03-29T23:00:44.019Z,54.5177
2023-03-29T23:01:45.514Z,54.5815
2023-03-29T23:02:47.031Z,54.6746
2023-03-29T23:03:48.595Z,54.6777
2023-03-29T23:04:50.222Z,54.6608
2023-03-29T23:05:51.587Z,54.6246
2023-03-29T23:06:53.193Z,54.5415
2023-03-29T23:07:54.624Z,54.5877
2023-03-29T23:08:56.170Z,54.5938
2023-03-29T23:09:57.723Z,54.5138
2023-03-29T23:10:59.188Z,54.5769
2023-03-29T23:12:00.854Z,54.5477
2023-03-29T23:13:02.224Z,54.5223
2023-03-29T23:14:03.744Z,54.4762
2023-03-29T23:15:05.304Z,54.5185
2023-03-29T23:16:06.889Z,54.4446
2023-03-29T23:17:08.307Z,54.1715
2023-03-29T23:18:09.852Z,54.2638
2023-03-29T23:19:11.347Z,54.3631
2023-03-29T23:20:12.938Z,54.2331
2023-03-29T23:21:14.397Z,54.3300
2023-03-29T23:22:15.951Z,54.3054
2023-03-29T23:23:17.438Z,54.1046
2023-03-29T23:24:19.323Z,54.0577
2023-03-29T23:25:20.490Z,54.1185
2023-03-29T23:26:22.003Z,54.0292
2023-03-29T23:27:23.576Z,54.0800
2023-03-29T23:28:25.069Z,54.0031
2023-03-29T23:29:26.567Z,53.9331
2023-03-29T23:30:28.108Z,53.9885
2023-03-29T23:31:29.657Z,54.0231
2023-03-29T23:32:31.165Z,53.9115
2023-03-29T23:33:32.689Z,54.0308
2023-03-29T23:34:34.185Z,54.0577
2023-03-29T23:35:35.773Z,53.8892
2023-03-29T23:36:37.233Z,53.9608
2023-03-29T23:37:38.799Z,54.0369
2023-03-29T23:38:40.262Z,53.8377
2023-03-29T23:39:41.826Z,53.8385
2023-03-29T23:40:43.316Z,53.9169
2023-03-29T23:41:44.915Z,53.9823
2023-03-29T23:42:46.384Z,54.0223
2023-03-29T23:43:47.913Z,53.9008
2023-03-29T23:44:49.402Z,53.8631
2023-03-29T23:45:51.083Z,53.8300
2023-03-29T23:46:52.541Z,53.9638
2023-03-29T23:47:54.025Z,53.9377
2023-03-29T23:48:55.554Z,53.9623
2023-03-29T23:49:57.016Z,53.8623
2023-03-29T23:50:59.616Z,53.9000
2023-03-29T23:52:00.077Z,53.9985
2023-03-29T23:53:01.560Z,53.9415
2023-03-29T23:54:03.120Z,54.0154
2023-03-29T23:55:04.595Z,53.9954
2023-03-29T23:56:06.139Z,53.9623
2023-03-29T23:57:07.757Z,53.9346
2023-03-29T23:58:09.156Z,53.9508
2023-03-29T23:59:10.741Z,53.8969
